createdAt,value
2019-02-18T00:02:12.905Z,101577.25
2019-02-18T00:04:44.230Z,101580.25
2019-02-18T00:07:14.998Z,101582.86
2019-02-18T00:09:45.391Z,101579.73
2019-02-18T00:12:17.093Z,101583.18
2019-02-18T00:14:47.269Z,101579.20
2019-02-18T00:17:17.509Z,101587.42
2019-02-18T00:19:47.671Z,101579.05
2019-02-18T00:22:17.869Z,101581.27
2019-02-18T00:24:48.007Z,101582.58
2019-02-18T00:27:18.228Z,101586.07
2019-02-18T00:29:48.423Z,101579.55
2019-02-18T00:32:21.123Z,101582.19
2019-02-18T00:34:51.271Z,101581.36
2019-02-18T00:37:24.496Z,101575.70
2019-02-18T00:39:53.622Z,101571.36
2019-02-18T00:42:24.500Z,101577.08
2019-02-18T00:44:54.798Z,101569.23
2019-02-18T00:47:24.998Z,101571.85
2019-02-18T00:49:56.226Z,101569.69
2019-02-18T00:52:27.617Z,101570.97
2019-02-18T00:54:57.761Z,101570.54
2019-02-18T00:57:27.930Z,101575.05
2019-02-18T00:59:58.117Z,101568.51
2019-02-18T01:02:28.439Z,101569.97
2019-02-18T01:04:58.609Z,101573.08
2019-02-18T01:07:34.726Z,101574.78
2019-02-18T01:10:00.566Z,101568.66
2019-02-18T01:12:30.980Z,101566.44
2019-02-18T01:15:01.113Z,101566.86
2019-02-18T01:17:31.585Z,101563.74
2019-02-18T01:20:01.758Z,101562.39
2019-02-18T01:22:31.951Z,101567.21
2019-02-18T01:25:03.836Z,101570.28
2019-02-18T01:27:33.957Z,101568.92
2019-02-18T01:30:04.999Z,101567.59
2019-02-18T01:32:35.153Z,101559.22
2019-02-18T01:35:05.754Z,101560.02
2019-02-18T01:37:45.238Z,101568.80
2019-02-18T01:40:10.166Z,101563.05
2019-02-18T01:42:40.301Z,101558.55
2019-02-18T01:45:11.595Z,101561.23
2019-02-18T01:47:41.697Z,101558.98
2019-02-18T01:50:13.592Z,101558.48
2019-02-18T01:52:43.747Z,101562.78
2019-02-18T01:55:14.111Z,101556.55
2019-02-18T01:57:44.295Z,101557.34
2019-02-18T02:00:15.847Z,101552.92
2019-02-18T02:02:46.030Z,101553.34
2019-02-18T02:05:16.485Z,101546.27
2019-02-18T02:07:55.700Z,101548.86
2019-02-18T02:10:18.420Z,101551.39
2019-02-18T02:12:48.555Z,101555.27
2019-02-18T02:15:24.859Z,101550.41
2019-02-18T02:17:56.105Z,101556.08
2019-02-18T02:20:27.660Z,101551.66
2019-02-18T02:22:57.885Z,101549.38
2019-02-18T02:25:28.022Z,101549.31
2019-02-18T02:27:58.222Z,101551.90
2019-02-18T02:30:28.345Z,101552.27
2019-02-18T02:32:58.922Z,101546.95
2019-02-18T02:35:29.048Z,101551.69
2019-02-18T02:38:07.237Z,101548.14
2019-02-18T02:40:31.048Z,101543.73
2019-02-18T02:43:01.235Z,101548.97
2019-02-18T02:45:31.344Z,101545.85
2019-02-18T02:48:01.492Z,101548.05
2019-02-18T02:50:33.119Z,101542.77
2019-02-18T02:53:03.322Z,101544.03
2019-02-18T02:55:33.474Z,101542.20
2019-02-18T02:58:03.631Z,101536.55
2019-02-18T03:00:33.796Z,101540.84
2019-02-18T03:03:04.310Z,101534.70
2019-02-18T03:05:34.476Z,101533.76
2019-02-18T03:08:04.648Z,101535.87
2019-02-18T03:10:36.189Z,101531.53
2019-02-18T03:13:06.348Z,101534.55
2019-02-18T03:15:36.910Z,101536.27
2019-02-18T03:18:07.044Z,101535.36
2019-02-18T03:20:37.225Z,101540.55
2019-02-18T03:23:07.312Z,101547.09
2019-02-18T03:25:37.905Z,101538.70
2019-02-18T03:28:31.902Z,101548.27
2019-02-18T03:31:15.703Z,101549.14
2019-02-18T03:33:50.171Z,101552.13
2019-02-18T03:36:20.448Z,101552.48
2019-02-18T03:38:50.606Z,101548.05
2019-02-18T03:41:20.814Z,101549.34
2019-02-18T03:43:50.986Z,101547.98
2019-02-18T03:46:21.150Z,101539.62
2019-02-18T03:48:51.310Z,101548.30
2019-02-18T03:51:21.511Z,101546.09
2019-02-18T03:53:51.998Z,101543.01
2019-02-18T03:56:22.154Z,101540.33
2019-02-18T03:58:54.162Z,101541.59
2019-02-18T04:01:27.217Z,101539.34
2019-02-18T04:04:01.962Z,101549.37
2019-02-18T04:06:32.178Z,101545.84
2019-02-18T04:09:02.318Z,101544.86
2019-02-18T04:11:34.063Z,101550.95
2019-02-18T04:14:04.223Z,101541.69
2019-02-18T04:16:34.321Z,101549.08
2019-02-18T04:19:04.528Z,101547.28
2019-02-18T04:21:34.679Z,101547.72
2019-02-18T04:24:04.831Z,101543.30
2019-02-18T04:26:41.711Z,101538.00
2019-02-18T04:29:11.940Z,101544.55
2019-02-18T04:31:45.080Z,101544.92
2019-02-18T04:34:17.426Z,101545.80
2019-02-18T04:36:47.430Z,101547.48
2019-02-18T04:39:17.643Z,101541.34
2019-02-18T04:41:47.747Z,101543.03
2019-02-18T04:44:17.922Z,101538.52
2019-02-18T04:46:48.072Z,101542.45
2019-02-18T04:49:18.424Z,101542.01
2019-02-18T04:51:50.025Z,101543.29
2019-02-18T04:54:20.756Z,101545.85
2019-02-18T04:56:50.877Z,101543.61
2019-02-18T04:59:21.133Z,101545.82
2019-02-18T05:01:51.299Z,101547.12
2019-02-18T05:04:23.194Z,101547.97
2019-02-18T05:06:56.476Z,101543.70
2019-02-18T05:09:26.713Z,101544.59
2019-02-18T05:11:56.916Z,101540.73
2019-02-18T05:14:27.266Z,101539.42
2019-02-18T05:16:57.586Z,101535.64
2019-02-18T05:19:29.865Z,101537.50
2019-02-18T05:22:07.799Z,101540.73
2019-02-18T05:24:40.333Z,101543.03
2019-02-18T05:27:10.762Z,101539.16
2019-02-18T05:29:40.963Z,101539.23
2019-02-18T05:32:11.121Z,101540.17
2019-02-18T05:34:42.598Z,101539.38
2019-02-18T05:37:21.366Z,101534.63
2019-02-18T05:39:51.441Z,101533.86
2019-02-18T05:42:21.649Z,101534.81
2019-02-18T05:44:51.948Z,101537.02
2019-02-18T05:47:22.162Z,101536.17
2019-02-18T05:49:54.278Z,101547.59
2019-02-18T05:52:29.781Z,101552.78
2019-02-18T05:54:59.962Z,101540.55
2019-02-18T05:57:30.466Z,101537.48
2019-02-18T06:00:00.650Z,101544.56
2019-02-18T06:02:30.884Z,101544.97
2019-02-18T06:05:01.262Z,101541.98
2019-02-18T06:07:31.357Z,101545.10
2019-02-18T06:10:01.526Z,101542.08
2019-02-18T06:12:31.702Z,101535.17
2019-02-18T06:15:01.924Z,101543.56
2019-02-18T06:17:32.264Z,101544.47
2019-02-18T06:20:02.434Z,101546.63
2019-02-18T06:22:32.587Z,101555.85
2019-02-18T06:25:04.456Z,101553.69
2019-02-18T06:27:34.577Z,101557.19
2019-02-18T06:30:05.529Z,101553.31
2019-02-18T06:32:35.986Z,101557.19
2019-02-18T06:35:06.319Z,101552.38
2019-02-18T06:37:36.452Z,101559.89
2019-02-18T06:40:07.386Z,101558.14
2019-02-18T06:42:37.544Z,101557.27
2019-02-18T06:45:35.756Z,101559.52
2019-02-18T06:48:27.308Z,101562.21
2019-02-18T06:50:57.508Z,101566.66
2019-02-18T06:53:27.808Z,101569.71
2019-02-18T06:56:01.503Z,101569.77
2019-02-18T06:58:45.497Z,101568.58
2019-02-18T07:01:38.761Z,101565.15
2019-02-18T07:04:26.348Z,101573.53
2019-02-18T07:07:33.855Z,101570.47
2019-02-18T07:10:19.070Z,101574.89
2019-02-18T07:12:52.559Z,101579.34
2019-02-18T07:15:23.036Z,101583.38
2019-02-18T07:17:53.176Z,101577.27
2019-02-18T07:20:23.299Z,101567.27
2019-02-18T07:22:56.275Z,101572.59
2019-02-18T07:25:26.427Z,101572.66
2019-02-18T07:27:56.666Z,101569.67
2019-02-18T07:30:26.868Z,101568.44
2019-02-18T07:32:57.063Z,101564.16
2019-02-18T07:35:27.921Z,101561.59
2019-02-18T07:37:58.117Z,101555.14
2019-02-18T07:40:28.237Z,101560.06
2019-02-18T07:42:58.686Z,101559.69
2019-02-18T07:45:28.794Z,101554.52
2019-02-18T07:47:59.295Z,101552.85
2019-02-18T07:50:29.537Z,101550.73
2019-02-18T07:52:59.680Z,101549.92
2019-02-18T07:55:29.856Z,101548.66
2019-02-18T07:58:00.429Z,101553.14
2019-02-18T08:00:30.573Z,101559.36
2019-02-18T08:03:00.732Z,101555.94
2019-02-18T08:05:31.089Z,101552.98
2019-02-18T08:08:01.305Z,101546.06
2019-02-18T08:10:31.557Z,101550.50
2019-02-18T08:13:01.721Z,101545.30
2019-02-18T08:15:31.833Z,101546.67
2019-02-18T08:18:01.972Z,101548.50
2019-02-18T08:20:32.538Z,101547.27
2019-02-18T08:23:04.363Z,101545.15
2019-02-18T08:25:34.562Z,101541.77
2019-02-18T08:28:04.723Z,101538.32
2019-02-18T08:30:34.991Z,101540.17
2019-02-18T08:33:06.483Z,101535.86
2019-02-18T08:35:36.644Z,101535.95
2019-02-18T08:38:06.773Z,101535.13
2019-02-18T08:40:36.941Z,101533.44
2019-02-18T08:43:07.189Z,101531.75
2019-02-18T08:45:37.359Z,101533.14
2019-02-18T08:48:07.471Z,101532.76
2019-02-18T08:50:37.764Z,101524.42
2019-02-18T08:53:08.051Z,101532.88
2019-02-18T08:55:38.172Z,101525.88
2019-02-18T08:58:08.283Z,101527.67
2019-02-18T09:00:38.766Z,101533.00
2019-02-18T09:03:08.976Z,101533.92
2019-02-18T09:05:39.118Z,101528.70
2019-02-18T09:08:09.251Z,101526.98
2019-02-18T09:10:39.389Z,101519.53
2019-02-18T09:13:09.481Z,101518.24
2019-02-18T09:15:39.647Z,101518.25
2019-02-18T09:18:09.796Z,101516.52
2019-02-18T09:20:39.931Z,101515.64
2019-02-18T09:23:32.087Z,101512.58
2019-02-18T09:26:04.101Z,101510.39
2019-02-18T09:28:34.270Z,101503.82
2019-02-18T09:31:04.700Z,101506.03
2019-02-18T09:33:36.100Z,101498.97
2019-02-18T09:36:08.084Z,101499.86
2019-02-18T09:38:38.283Z,101498.53
2019-02-18T09:41:08.514Z,101497.23
2019-02-18T09:43:40.714Z,101496.80
2019-02-18T09:46:10.969Z,101495.46
2019-02-18T09:48:41.276Z,101489.73
2019-02-18T09:51:11.526Z,101490.16
2019-02-18T09:53:41.980Z,101488.39
2019-02-18T09:56:12.130Z,101483.58
2019-02-18T09:58:42.404Z,101476.52
2019-02-18T10:01:12.541Z,101480.89
2019-02-18T10:03:42.618Z,101476.48
2019-02-18T10:06:12.792Z,101476.02
2019-02-18T10:08:42.914Z,101474.71
2019-02-18T10:11:14.712Z,101466.74
2019-02-18T10:13:44.832Z,101459.27
2019-02-18T10:16:14.954Z,101464.09
2019-02-18T10:18:45.212Z,101468.03
2019-02-18T10:21:15.314Z,101466.20
2019-02-18T10:23:45.403Z,101468.84
2019-02-18T10:26:15.581Z,101466.59
2019-02-18T10:28:46.508Z,101460.84
2019-02-18T10:31:16.650Z,101455.94
2019-02-18T10:33:47.242Z,101449.28
2019-02-18T10:36:17.753Z,101447.08
2019-02-18T10:38:47.932Z,101448.36
2019-02-18T10:41:19.287Z,101445.23
2019-02-18T10:43:49.638Z,101442.11
2019-02-18T10:46:19.860Z,101442.08
2019-02-18T10:48:50.054Z,101444.67
2019-02-18T10:51:20.235Z,101433.19
2019-02-18T10:53:50.398Z,101434.48
2019-02-18T10:56:20.751Z,101426.07
2019-02-18T10:58:51.026Z,101418.50
2019-02-18T11:01:21.212Z,101410.94
2019-02-18T11:03:51.854Z,101418.83
2019-02-18T11:06:22.017Z,101415.24
2019-02-18T11:08:52.139Z,101413.88
2019-02-18T11:11:22.258Z,101408.04
2019-02-18T11:13:52.425Z,101405.29
2019-02-18T11:16:23.513Z,101406.62
2019-02-18T11:18:54.019Z,101396.79
2019-02-18T11:21:24.217Z,101394.30
2019-02-18T11:23:54.355Z,101395.72
2019-02-18T11:26:24.480Z,101391.73
2019-02-18T11:28:54.661Z,101391.23
2019-02-18T11:31:24.957Z,101391.45
2019-02-18T11:33:56.453Z,101389.70
2019-02-18T11:36:26.612Z,101388.37
2019-02-18T11:38:57.097Z,101379.45
2019-02-18T11:41:27.809Z,101376.27
2019-02-18T11:43:58.080Z,101366.47
2019-02-18T11:46:28.214Z,101370.91
2019-02-18T11:48:58.435Z,101366.47
2019-02-18T11:51:28.628Z,101365.58
2019-02-18T11:53:58.753Z,101362.45
2019-02-18T11:56:28.986Z,101363.31
2019-02-18T11:58:59.253Z,101355.66
2019-02-18T12:01:29.426Z,101352.95
2019-02-18T12:03:59.645Z,101355.14
2019-02-18T12:06:29.903Z,101348.97
2019-02-18T12:09:00.073Z,101352.81
2019-02-18T12:11:37.905Z,101355.91
2019-02-18T12:14:04.258Z,101342.58
2019-02-18T12:16:34.455Z,101344.28
2019-02-18T12:19:04.642Z,101343.77
2019-02-18T12:21:34.785Z,101337.16
2019-02-18T12:24:04.984Z,101330.06
2019-02-18T12:26:35.429Z,101329.52
2019-02-18T12:29:05.677Z,101322.39
2019-02-18T12:31:36.508Z,101323.19
2019-02-18T12:34:06.795Z,101318.80
2019-02-18T12:36:37.015Z,101313.38
2019-02-18T12:39:12.692Z,101312.45
2019-02-18T12:41:48.554Z,101300.06
2019-02-18T12:44:27.651Z,101301.17
2019-02-18T12:46:58.177Z,101288.83
2019-02-18T12:49:28.862Z,101285.14
2019-02-18T12:51:59.138Z,101282.89
2019-02-18T12:54:29.402Z,101279.83
2019-02-18T12:57:00.543Z,101270.00
2019-02-18T12:59:31.250Z,101268.67
2019-02-18T13:02:02.765Z,101260.67
2019-02-18T13:04:33.442Z,101252.42
2019-02-18T13:07:03.715Z,101254.69
2019-02-18T13:09:33.973Z,101253.86
2019-02-18T13:12:04.147Z,101250.16
2019-02-18T13:14:34.375Z,101241.62
2019-02-18T13:17:04.838Z,101247.91
2019-02-18T13:19:35.190Z,101237.70
2019-02-18T13:22:05.637Z,101235.41
2019-02-18T13:24:36.788Z,101226.96
2019-02-18T13:27:07.068Z,101226.70
2019-02-18T13:29:37.323Z,101224.52
2019-02-18T13:32:07.580Z,101220.09
2019-02-18T13:34:37.895Z,101218.27
2019-02-18T13:37:08.545Z,101216.89
2019-02-18T13:39:38.893Z,101212.01
2019-02-18T13:42:09.179Z,101215.49
2019-02-18T13:44:39.520Z,101210.02
2019-02-18T13:47:09.770Z,101212.87
2019-02-18T13:49:42.117Z,101212.01
2019-02-18T13:52:12.534Z,101208.22
2019-02-18T13:54:42.861Z,101206.73
2019-02-18T13:57:13.492Z,101207.27
2019-02-18T13:59:43.948Z,101200.55
2019-02-18T14:02:14.156Z,101200.95
2019-02-18T14:04:47.346Z,101199.62
2019-02-18T14:07:17.631Z,101196.53
2019-02-18T14:09:47.796Z,101192.42
2019-02-18T14:12:18.058Z,101188.44
2019-02-18T14:14:48.282Z,101187.18
2019-02-18T14:17:20.078Z,101191.45
2019-02-18T14:19:50.179Z,101193.23
2019-02-18T14:22:20.774Z,101185.27
2019-02-18T14:24:51.021Z,101181.39
2019-02-18T14:27:21.209Z,101180.46
2019-02-18T14:29:52.322Z,101180.11
2019-02-18T14:32:22.514Z,101176.39
2019-02-18T14:34:52.619Z,101176.08
2019-02-18T14:37:22.830Z,101178.42
2019-02-18T14:39:52.980Z,101169.23
2019-02-18T14:42:24.625Z,101173.89
2019-02-18T14:44:54.942Z,101173.54
2019-02-18T14:47:25.921Z,101174.08
2019-02-18T14:49:56.298Z,101172.44
2019-02-18T14:52:26.924Z,101168.49
2019-02-18T14:54:57.088Z,101167.63
2019-02-18T14:57:27.532Z,101159.58
2019-02-18T14:59:57.888Z,101153.64
2019-02-18T15:02:28.415Z,101156.88
2019-02-18T15:04:58.584Z,101157.35
2019-02-18T15:07:28.726Z,101158.69
2019-02-18T15:09:59.254Z,101156.53
2019-02-18T15:12:33.062Z,101149.89
2019-02-18T15:15:01.256Z,101150.43
2019-02-18T15:17:32.829Z,101149.65
2019-02-18T15:20:03.256Z,101143.59
2019-02-18T15:22:33.455Z,101145.50
2019-02-18T15:25:03.779Z,101148.16
2019-02-18T15:27:34.047Z,101139.33
2019-02-18T15:30:05.939Z,101141.66
2019-02-18T15:32:36.134Z,101136.02
2019-02-18T15:35:06.479Z,101136.92
2019-02-18T15:37:36.892Z,101125.94
2019-02-18T15:40:08.181Z,101120.98
2019-02-18T15:42:42.284Z,101123.21
2019-02-18T15:45:10.529Z,101116.32
2019-02-18T15:47:41.392Z,101110.76
2019-02-18T15:50:12.387Z,101108.21
2019-02-18T15:52:42.701Z,101118.47
2019-02-18T15:55:13.177Z,101113.77
2019-02-18T15:57:46.612Z,101122.69
2019-02-18T16:00:18.947Z,101118.84
2019-02-18T16:02:49.893Z,101111.44
2019-02-18T16:05:20.039Z,101105.37
2019-02-18T16:07:58.329Z,101104.60
2019-02-18T16:10:35.833Z,101104.80
2019-02-18T16:13:06.535Z,101097.85
2019-02-18T16:15:37.719Z,101108.16
2019-02-18T16:18:08.383Z,101101.64
2019-02-18T16:20:40.106Z,101097.41
2019-02-18T16:23:10.874Z,101093.14
2019-02-18T16:25:41.341Z,101092.42
2019-02-18T16:28:29.233Z,101090.80
2019-02-18T16:30:59.561Z,101091.82
2019-02-18T16:33:30.905Z,101089.73
2019-02-18T16:36:01.248Z,101081.51
2019-02-18T16:38:35.101Z,101088.76
2019-02-18T16:41:09.686Z,101083.08
2019-02-18T16:43:40.052Z,101086.69
2019-02-18T16:46:10.559Z,101085.46
2019-02-18T16:48:41.597Z,101082.42
2019-02-18T16:51:20.832Z,101075.94
2019-02-18T16:53:55.836Z,101082.66
2019-02-18T16:56:26.651Z,101077.45
2019-02-18T16:58:57.486Z,101076.30
2019-02-18T17:01:31.743Z,101075.45
2019-02-18T17:04:02.015Z,101075.98
2019-02-18T17:06:32.239Z,101075.19
2019-02-18T17:09:02.387Z,101078.34
2019-02-18T17:11:34.178Z,101069.15
2019-02-18T17:14:05.442Z,101068.34
2019-02-18T17:16:36.682Z,101067.13
2019-02-18T17:19:07.998Z,101067.16
2019-02-18T17:21:38.236Z,101064.61
2019-02-18T17:24:08.734Z,101072.58
2019-02-18T17:26:41.354Z,101068.23
2019-02-18T17:29:11.844Z,101067.83
2019-02-18T17:31:42.136Z,101066.55
2019-02-18T17:34:12.559Z,101066.17
2019-02-18T17:36:42.804Z,101062.67
2019-02-18T17:39:13.044Z,101069.34
2019-02-18T17:41:43.212Z,101064.52
2019-02-18T17:44:19.966Z,101058.81
2019-02-18T17:46:45.375Z,101062.38
2019-02-18T17:49:18.040Z,101057.13
2019-02-18T17:51:49.752Z,101054.52
2019-02-18T17:54:20.290Z,101055.88
2019-02-18T17:56:50.554Z,101056.80
2019-02-18T17:59:20.777Z,101046.72
2019-02-18T18:01:51.068Z,101043.23
2019-02-18T18:04:21.326Z,101042.38
2019-02-18T18:06:56.993Z,101040.22
2019-02-18T18:09:29.762Z,101038.45
2019-02-18T18:12:00.148Z,101034.99
2019-02-18T18:14:30.602Z,101032.35
2019-02-18T18:17:00.800Z,101037.20
2019-02-18T18:19:31.509Z,101028.84
2019-02-18T18:22:02.118Z,101022.23
2019-02-18T18:24:33.978Z,101026.66
2019-02-18T18:27:04.179Z,101027.98
2019-02-18T18:29:36.040Z,101029.75
2019-02-18T18:32:06.750Z,101033.72
2019-02-18T18:34:37.911Z,101022.31
2019-02-18T18:37:08.139Z,101018.38
2019-02-18T18:40:00.413Z,101018.34
2019-02-18T18:42:32.417Z,101013.11
2019-02-18T18:45:02.718Z,101006.11
2019-02-18T18:47:33.068Z,101003.92
2019-02-18T18:50:03.303Z,101011.41
2019-02-18T18:52:33.517Z,101019.75
2019-02-18T18:55:04.005Z,101018.01
2019-02-18T18:57:34.212Z,101014.47
2019-02-18T19:00:05.305Z,101015.75
2019-02-18T19:02:37.049Z,101010.88
2019-02-18T19:05:07.664Z,101018.74
2019-02-18T19:07:38.315Z,101011.25
2019-02-18T19:10:08.911Z,101016.52
2019-02-18T19:12:39.146Z,101015.59
2019-02-18T19:15:10.233Z,101012.91
2019-02-18T19:17:40.568Z,101011.96
2019-02-18T19:20:14.899Z,101011.93
2019-02-18T19:22:47.106Z,101007.98
2019-02-18T19:25:17.371Z,101017.17
2019-02-18T19:27:47.579Z,101021.59
2019-02-18T19:30:20.580Z,101017.61
2019-02-18T19:32:51.313Z,101018.52
2019-02-18T19:35:21.491Z,101016.73
2019-02-18T19:37:53.562Z,101022.91
2019-02-18T19:40:23.837Z,101018.47
2019-02-18T19:42:54.290Z,101009.61
2019-02-18T19:45:24.964Z,101009.59
2019-02-18T19:47:55.210Z,101018.38
2019-02-18T19:50:25.419Z,101015.69
2019-02-18T19:52:58.237Z,101008.59
2019-02-18T19:55:30.060Z,101016.55
2019-02-18T19:58:00.720Z,101011.23
2019-02-18T20:00:31.321Z,101011.67
2019-02-18T20:03:01.593Z,101008.19
2019-02-18T20:05:33.066Z,101010.38
2019-02-18T20:08:03.711Z,101022.67
2019-02-18T20:10:34.319Z,101012.57
2019-02-18T20:13:04.471Z,101015.63
2019-02-18T20:15:37.326Z,101017.39
2019-02-18T20:18:07.550Z,101011.64
2019-02-18T20:20:37.845Z,101005.97
2019-02-18T20:23:09.807Z,101013.05
2019-02-18T20:25:40.034Z,101002.46
2019-02-18T20:28:11.994Z,101004.25
2019-02-18T20:30:42.313Z,101013.52
2019-02-18T20:33:12.773Z,101005.16
2019-02-18T20:35:47.120Z,101014.83
2019-02-18T20:38:20.165Z,101023.20
2019-02-18T20:40:50.576Z,101021.44
2019-02-18T20:43:20.967Z,101021.03
2019-02-18T20:45:52.165Z,101023.72
2019-02-18T20:48:22.419Z,101021.98
2019-02-18T20:50:52.765Z,101026.43
2019-02-18T20:53:23.034Z,101023.41
2019-02-18T20:55:53.651Z,101021.16
2019-02-18T20:58:25.201Z,101016.77
2019-02-18T21:00:55.689Z,101007.48
2019-02-18T21:03:27.037Z,101002.61
2019-02-18T21:05:59.855Z,100998.63
2019-02-18T21:08:30.137Z,100992.40
2019-02-18T21:11:02.870Z,100990.20
2019-02-18T21:13:33.162Z,100991.92
2019-02-18T21:16:06.647Z,100990.64
2019-02-18T21:18:40.333Z,100995.95
2019-02-18T21:21:10.660Z,100992.45
2019-02-18T21:23:41.300Z,100997.71
2019-02-18T21:26:12.483Z,100996.41
2019-02-18T21:28:46.439Z,100994.67
2019-02-18T21:31:18.940Z,100997.30
2019-02-18T21:33:49.275Z,101000.44
2019-02-18T21:36:20.149Z,100992.95
2019-02-18T21:38:50.696Z,100998.27
2019-02-18T21:41:21.258Z,101000.06
2019-02-18T21:43:51.633Z,100999.62
2019-02-18T21:46:21.828Z,100999.19
2019-02-18T21:48:52.062Z,101000.52
2019-02-18T21:51:23.404Z,100996.13
2019-02-18T21:53:53.780Z,100993.93
2019-02-18T21:56:25.249Z,100996.59
2019-02-18T21:58:57.167Z,100991.75
2019-02-18T22:01:29.181Z,100997.01
2019-02-18T22:03:59.511Z,100999.64
2019-02-18T22:06:33.231Z,100996.98
2019-02-18T22:09:04.448Z,100996.13
2019-02-18T22:11:36.424Z,100991.30
2019-02-18T22:14:06.607Z,100985.16
2019-02-18T22:16:36.824Z,100990.45
2019-02-18T22:19:07.272Z,100988.25
2019-02-18T22:21:37.428Z,100991.34
2019-02-18T22:24:07.592Z,100992.23
2019-02-18T22:26:37.716Z,100992.25
2019-02-18T22:29:07.894Z,100998.86
2019-02-18T22:31:38.078Z,100991.83
2019-02-18T22:34:08.399Z,100987.89
2019-02-18T22:36:38.490Z,100993.20
2019-02-18T22:39:09.648Z,100993.17
2019-02-18T22:41:39.928Z,100989.24
2019-02-18T22:44:10.074Z,100990.58
2019-02-18T22:46:40.236Z,100991.46
2019-02-18T22:49:10.542Z,100987.52
2019-02-18T22:51:40.697Z,100990.59
2019-02-18T22:54:10.857Z,100990.59
2019-02-18T22:56:41.046Z,100987.08
2019-02-18T22:59:11.198Z,100981.80
2019-02-18T23:01:42.560Z,100978.28
2019-02-18T23:04:12.812Z,100978.28
2019-02-18T23:06:42.958Z,100980.92
2019-02-18T23:09:14.614Z,100973.88
2019-02-18T23:11:45.163Z,100977.84
2019-02-18T23:14:15.290Z,100983.56
2019-02-18T23:16:45.775Z,100980.05
2019-02-18T23:19:15.924Z,100974.80
2019-02-18T23:21:45.946Z,100973.08
2019-02-18T23:24:17.112Z,100977.89
2019-02-18T23:26:47.270Z,100976.59
2019-02-18T23:29:17.554Z,100982.75
2019-02-18T23:31:48.072Z,100974.86
2019-02-18T23:34:18.211Z,100972.20
2019-02-18T23:36:48.413Z,100977.50
2019-02-18T23:39:18.585Z,100976.16
2019-02-18T23:41:48.725Z,100978.38
2019-02-18T23:44:18.980Z,100969.58
2019-02-18T23:46:49.195Z,100971.31
2019-02-18T23:49:19.619Z,100970.45
2019-02-18T23:51:49.829Z,100970.45
2019-02-18T23:54:20.231Z,100973.53
2019-02-18T23:56:51.216Z,100970.88
2019-02-18T23:59:21.395Z,100964.73
